McCurtain, Oklahoma
Current Conditions -  °F | °C
As of 7:35 AM on Sunday 25 Jan 2015 (Local Time) from KGZL Reporting Station
Clear Clear  
Wind Chill: 43°   Ceiling: Unl
Heat Index: 48°   Visibility: 10mi
Dew Point: 28°   Wind: 12mph
Humidity: 46%   Direction: 300°WNW
Pressure: 29.86"   Gusts: 20mph
Location:  35.15°N, 94.97°W
Report Text: KGZL 251335Z AUTO 30010G17KT 10SM CLR 09/M02 A2986 RMK AO2
Loading
Personal Weather Stations






























Interactive Weather Map New forecast layout! Learn more

10-Day Weather Forecast

Advertisements
Track Severe Weather on mobile